createdAt,value
2023-04-26T00:00:11.482Z,2.16
2023-04-26T00:04:16.099Z,2.05
2023-04-26T00:08:19.297Z,2.01
2023-04-26T00:12:22.347Z,1.86
2023-04-26T00:16:25.499Z,1.84
2023-04-26T00:20:30.136Z,1.82
2023-04-26T00:24:33.436Z,1.93
2023-04-26T00:28:36.319Z,1.95
2023-04-26T00:32:39.516Z,1.90
2023-04-26T00:36:44.935Z,1.72
2023-04-26T00:40:47.862Z,1.67
2023-04-26T00:44:55.234Z,1.77
2023-04-26T00:48:58.616Z,1.61
2023-04-26T00:53:03.765Z,1.50
2023-04-26T00:57:07.259Z,1.44
2023-04-26T01:01:10.230Z,1.42
2023-04-26T01:05:13.576Z,1.47
2023-04-26T01:09:19.037Z,1.33
2023-04-26T01:13:22.073Z,1.35
2023-04-26T01:17:26.029Z,1.39
2023-04-26T01:21:28.980Z,1.33
2023-04-26T01:25:34.480Z,1.38
2023-04-26T01:29:37.710Z,1.33
2023-04-26T01:33:40.696Z,1.34
2023-04-26T01:37:43.640Z,1.16
2023-04-26T01:41:47.842Z,1.04
2023-04-26T01:45:50.925Z,0.90
2023-04-26T01:50:07.368Z,0.84
2023-04-26T01:54:10.232Z,0.84
2023-04-26T01:58:14.470Z,1.00
2023-04-26T02:02:18.126Z,1.04
2023-04-26T02:06:21.407Z,0.73
2023-04-26T02:10:24.307Z,0.66
2023-04-26T02:14:28.620Z,0.63
2023-04-26T02:18:31.504Z,0.72
2023-04-26T02:22:34.361Z,0.72
2023-04-26T02:26:37.320Z,0.82
2023-04-26T02:30:41.928Z,0.73
2023-04-26T02:34:45.641Z,0.90
2023-04-26T02:38:48.686Z,0.70
2023-04-26T02:42:51.927Z,0.54
2023-04-26T02:46:56.292Z,0.59
2023-04-26T02:50:59.320Z,0.39
2023-04-26T02:55:02.383Z,0.29
2023-04-26T02:59:05.337Z,0.41
2023-04-26T03:03:09.640Z,0.49
2023-04-26T03:07:12.662Z,0.26
2023-04-26T03:11:15.570Z,0.33
2023-04-26T03:15:18.679Z,0.28
2023-04-26T03:19:23.076Z,0.22
2023-04-26T03:23:26.491Z,0.02
2023-04-26T03:27:30.766Z,0.29
2023-04-26T03:31:33.967Z,0.18
2023-04-26T03:35:38.569Z,0.00
2023-04-26T03:39:41.771Z,-0.09
2023-04-26T03:43:45.873Z,0.05
2023-04-26T03:47:48.812Z,0.18
2023-04-26T03:51:53.490Z,0.04
2023-04-26T03:55:56.633Z,-0.03
2023-04-26T03:59:59.548Z,0.29
2023-04-26T04:04:02.942Z,0.31
2023-04-26T04:08:07.523Z,0.21
2023-04-26T04:12:11.676Z,0.12
2023-04-26T04:16:14.942Z,-0.08
2023-04-26T04:20:18.985Z,-0.10
2023-04-26T04:24:23.892Z,-0.09
2023-04-26T04:28:28.310Z,0.05
2023-04-26T04:32:35.201Z,0.38
2023-04-26T04:36:40.873Z,0.43
2023-04-26T04:40:45.460Z,0.50
2023-04-26T04:44:50.199Z,0.47
2023-04-26T04:48:54.603Z,0.47
2023-04-26T04:52:57.975Z,0.76
2023-04-26T04:57:03.045Z,0.88
2023-04-26T05:01:07.541Z,0.96
2023-04-26T05:05:32.134Z,1.19
2023-04-26T05:09:35.156Z,1.34
2023-04-26T05:13:40.259Z,1.46
2023-04-26T05:17:43.750Z,1.60
2023-04-26T05:21:53.552Z,1.73
2023-04-26T05:25:56.644Z,1.83
2023-04-26T05:30:27.613Z,2.00
2023-04-26T05:34:52.079Z,2.20
2023-04-26T05:38:55.014Z,2.41
2023-04-26T05:42:58.058Z,2.53
2023-04-26T05:47:03.974Z,2.62
2023-04-26T05:51:07.408Z,2.77
2023-04-26T05:55:11.384Z,3.05
2023-04-26T05:59:14.417Z,3.25
2023-04-26T06:03:19.424Z,3.44
2023-04-26T06:07:22.649Z,3.67
2023-04-26T06:11:26.964Z,3.70
2023-04-26T06:15:31.822Z,4.05
2023-04-26T06:19:36.881Z,4.20
2023-04-26T06:23:39.819Z,4.43
2023-04-26T06:27:42.677Z,4.67
2023-04-26T06:31:46.164Z,4.94
2023-04-26T06:35:50.782Z,5.17
2023-04-26T06:39:54.816Z,5.42
2023-04-26T06:43:57.833Z,5.42
2023-04-26T06:48:07.213Z,5.63
2023-04-26T06:52:11.998Z,6.09
2023-04-26T06:56:15.385Z,6.30
2023-04-26T07:00:19.072Z,6.71
2023-04-26T07:04:22.055Z,6.64
2023-04-26T07:08:26.522Z,6.99
2023-04-26T07:12:29.436Z,7.10
2023-04-26T07:16:32.554Z,7.40
2023-04-26T07:20:36.186Z,7.37
2023-04-26T07:24:40.479Z,7.37
2023-04-26T07:28:43.592Z,7.12
2023-04-26T07:32:46.475Z,7.63
2023-04-26T07:36:49.498Z,7.09
2023-04-26T07:40:53.760Z,7.73
2023-04-26T07:44:56.631Z,7.85
2023-04-26T07:48:59.492Z,7.80
2023-04-26T07:53:02.379Z,8.15
2023-04-26T07:57:06.776Z,8.00
2023-04-26T08:01:11.789Z,8.12
2023-04-26T08:05:15.169Z,8.33
2023-04-26T08:09:18.626Z,7.83
2023-04-26T08:13:23.046Z,8.42
2023-04-26T08:17:25.951Z,8.40
2023-04-26T08:21:28.970Z,8.85
2023-04-26T08:25:34.864Z,8.86
2023-04-26T08:29:39.136Z,9.58
2023-04-26T08:33:42.005Z,9.02
2023-04-26T08:37:45.704Z,9.17
2023-04-26T08:41:51.220Z,9.33
2023-04-26T08:45:56.021Z,9.89
2023-04-26T08:49:59.846Z,9.93
2023-04-26T08:54:05.083Z,9.70
2023-04-26T08:58:10.133Z,9.78
2023-04-26T09:02:18.443Z,9.52
2023-04-26T09:06:21.745Z,9.79
2023-04-26T09:10:25.354Z,9.98
2023-04-26T09:14:28.641Z,9.12
2023-04-26T09:18:34.214Z,10.33
2023-04-26T09:22:38.967Z,11.54
2023-04-26T09:26:42.099Z,11.36
2023-04-26T09:30:45.096Z,10.93
2023-04-26T09:34:49.369Z,11.92
2023-04-26T09:38:52.405Z,11.32
2023-04-26T09:42:59.347Z,11.96
2023-04-26T09:47:03.325Z,10.12
2023-04-26T09:51:12.441Z,9.42
2023-04-26T09:55:34.636Z,10.03
2023-04-26T09:59:46.269Z,10.93
2023-04-26T10:03:49.483Z,12.96
2023-04-26T10:07:54.045Z,12.48
2023-04-26T10:11:57.285Z,11.16
2023-04-26T10:16:01.098Z,10.66
2023-04-26T10:20:06.038Z,12.13
2023-04-26T10:24:11.518Z,11.60
2023-04-26T10:28:14.435Z,11.88
2023-04-26T10:32:18.708Z,12.20
2023-04-26T10:36:22.353Z,11.28
2023-04-26T10:40:27.845Z,10.92
2023-04-26T10:44:41.659Z,10.98
2023-04-26T10:48:44.694Z,11.70
2023-04-26T10:53:08.848Z,10.79
2023-04-26T10:57:13.189Z,11.51
2023-04-26T11:01:17.630Z,10.54
2023-04-26T11:05:50.792Z,11.03
2023-04-26T11:09:53.709Z,11.05
2023-04-26T11:13:58.405Z,11.64
2023-04-26T11:18:03.466Z,10.94
2023-04-26T11:22:07.976Z,12.32
2023-04-26T11:26:10.995Z,12.53
2023-04-26T11:30:15.552Z,13.11
2023-04-26T11:34:18.718Z,13.13
2023-04-26T11:38:23.043Z,12.26
2023-04-26T11:42:26.744Z,11.88
2023-04-26T11:46:31.277Z,12.47
2023-04-26T11:50:35.785Z,12.54
2023-04-26T11:54:38.736Z,13.12
2023-04-26T11:58:41.634Z,12.25
2023-04-26T12:02:49.458Z,12.05
2023-04-26T12:06:52.812Z,11.36
2023-04-26T12:10:56.555Z,12.21
2023-04-26T12:14:59.530Z,11.50
2023-04-26T12:19:06.656Z,12.32
2023-04-26T12:23:10.257Z,12.79
2023-04-26T12:27:21.354Z,13.58
2023-04-26T12:31:24.239Z,13.96
2023-04-26T12:35:28.563Z,13.47
2023-04-26T12:39:31.522Z,13.44
2023-04-26T12:43:34.627Z,13.54
2023-04-26T12:47:37.615Z,14.81
2023-04-26T12:51:41.985Z,12.95
2023-04-26T12:55:45.321Z,12.60
2023-04-26T12:59:48.545Z,12.11
2023-04-26T13:03:51.718Z,13.15
2023-04-26T13:07:56.312Z,12.57
2023-04-26T13:11:59.446Z,13.40
2023-04-26T13:16:04.762Z,15.47
2023-04-26T13:20:08.677Z,14.23
2023-04-26T13:24:12.992Z,13.78
2023-04-26T13:28:16.608Z,13.83
2023-04-26T13:32:19.819Z,14.23
2023-04-26T13:36:22.886Z,15.23
2023-04-26T13:40:27.102Z,15.13
2023-04-26T13:44:30.053Z,16.66
2023-04-26T13:48:33.093Z,16.78
2023-04-26T13:52:36.385Z,13.93
2023-04-26T13:56:40.890Z,12.87
2023-04-26T14:00:43.824Z,13.06
2023-04-26T14:04:46.982Z,12.92
2023-04-26T14:08:49.986Z,13.58
2023-04-26T14:12:54.954Z,13.14
2023-04-26T14:16:57.867Z,13.24
2023-04-26T14:21:00.875Z,12.65
2023-04-26T14:25:04.241Z,12.63
2023-04-26T14:29:09.006Z,12.57
2023-04-26T14:33:11.900Z,12.17
2023-04-26T14:37:15.302Z,13.66
2023-04-26T14:41:18.821Z,13.58
2023-04-26T14:45:27.868Z,12.22
2023-04-26T14:49:36.590Z,11.86
2023-04-26T14:53:40.009Z,12.97
2023-04-26T14:57:43.179Z,12.54
2023-04-26T15:01:47.539Z,12.47
2023-04-26T15:05:50.814Z,13.91
2023-04-26T15:09:53.706Z,13.53
2023-04-26T15:13:56.623Z,12.94
2023-04-26T15:18:01.913Z,15.27
2023-04-26T15:22:05.863Z,15.16
2023-04-26T15:26:09.020Z,15.49
2023-04-26T15:30:12.240Z,14.74
2023-04-26T15:34:16.677Z,14.50
2023-04-26T15:38:19.695Z,13.30
2023-04-26T15:42:22.761Z,15.06
2023-04-26T15:46:25.800Z,14.11
2023-04-26T15:50:30.414Z,14.74
2023-04-26T15:54:33.421Z,15.57
2023-04-26T15:58:39.816Z,16.49
2023-04-26T16:02:45.055Z,16.78
2023-04-26T16:06:49.637Z,17.13
2023-04-26T16:10:52.649Z,16.05
2023-04-26T16:14:56.353Z,15.57
2023-04-26T16:18:59.272Z,14.76
2023-04-26T16:23:04.145Z,15.54
2023-04-26T16:27:07.026Z,15.00
2023-04-26T16:31:10.391Z,14.26
2023-04-26T16:35:14.415Z,14.66
2023-04-26T16:39:19.545Z,13.06
2023-04-26T16:43:22.473Z,13.00
2023-04-26T16:47:25.455Z,13.41
2023-04-26T16:51:28.813Z,14.26
2023-04-26T16:55:33.723Z,14.37
2023-04-26T16:59:36.638Z,13.83
2023-04-26T17:03:39.814Z,13.99
2023-04-26T17:07:42.950Z,12.53
2023-04-26T17:11:47.237Z,12.45
2023-04-26T17:15:50.206Z,11.96
2023-04-26T17:19:53.179Z,12.99
2023-04-26T17:23:56.086Z,12.91
2023-04-26T17:28:00.375Z,12.60
2023-04-26T17:32:03.690Z,11.84
2023-04-26T17:36:07.005Z,11.22
2023-04-26T17:40:10.677Z,10.96
2023-04-26T17:44:15.038Z,10.67
2023-04-26T17:48:18.723Z,10.51
2023-04-26T17:52:21.722Z,10.21
2023-04-26T17:56:25.401Z,10.13
2023-04-26T18:00:29.935Z,10.01
2023-04-26T18:04:33.676Z,9.99
2023-04-26T18:08:37.584Z,9.89
2023-04-26T18:12:40.756Z,9.82
2023-04-26T18:16:45.215Z,9.62
2023-04-26T18:20:48.142Z,9.63
2023-04-26T18:24:51.144Z,9.59
2023-04-26T18:28:54.975Z,9.49
2023-04-26T18:32:59.576Z,9.45
2023-04-26T18:37:02.845Z,9.36
2023-04-26T18:41:05.976Z,9.29
2023-04-26T18:45:09.639Z,9.27
2023-04-26T18:49:14.133Z,9.27
2023-04-26T18:53:17.571Z,9.18
2023-04-26T18:57:22.711Z,9.09
2023-04-26T19:01:27.198Z,9.08
2023-04-26T19:05:31.829Z,9.08
2023-04-26T19:09:50.553Z,8.96
2023-04-26T19:13:56.613Z,8.91
2023-04-26T19:17:59.642Z,8.84
2023-04-26T19:22:04.507Z,8.79
2023-04-26T19:26:09.281Z,8.80
2023-04-26T19:30:12.839Z,8.67
2023-04-26T19:34:16.386Z,8.69
2023-04-26T19:38:21.693Z,8.69
2023-04-26T19:42:24.781Z,8.60
2023-04-26T19:46:28.234Z,8.56
2023-04-26T19:50:32.583Z,8.50
2023-04-26T19:54:37.492Z,8.48
2023-04-26T19:58:40.812Z,8.42
2023-04-26T20:02:44.040Z,8.31
2023-04-26T20:06:47.177Z,8.34
2023-04-26T20:10:53.997Z,8.32
2023-04-26T20:14:57.010Z,8.23
2023-04-26T20:19:00.650Z,8.20
2023-04-26T20:23:04.530Z,8.09
2023-04-26T20:27:10.701Z,8.08
2023-04-26T20:31:15.202Z,8.03
2023-04-26T20:35:21.601Z,7.98
2023-04-26T20:39:24.668Z,7.87
2023-04-26T20:43:29.159Z,7.81
2023-04-26T20:47:33.525Z,7.85
2023-04-26T20:51:36.374Z,7.82
2023-04-26T20:55:40.416Z,7.80
2023-04-26T20:59:45.078Z,7.84
2023-04-26T21:03:48.445Z,7.82
2023-04-26T21:07:52.141Z,7.84
2023-04-26T21:11:55.163Z,7.78
2023-04-26T21:16:02.541Z,7.73
2023-04-26T21:20:05.841Z,7.71
2023-04-26T21:24:12.522Z,7.65
2023-04-26T21:28:15.497Z,7.67
2023-04-26T21:32:20.141Z,7.61
2023-04-26T21:36:23.108Z,7.62
2023-04-26T21:40:26.105Z,7.63
2023-04-26T21:44:29.125Z,7.63
2023-04-26T21:48:33.350Z,7.53
2023-04-26T21:52:37.634Z,7.54
2023-04-26T21:56:41.405Z,7.50
2023-04-26T22:00:44.317Z,7.42
2023-04-26T22:04:48.752Z,7.37
2023-04-26T22:08:51.774Z,7.36
2023-04-26T22:12:54.962Z,7.36
2023-04-26T22:16:57.995Z,7.30
2023-04-26T22:21:02.271Z,7.26
2023-04-26T22:25:05.507Z,7.22
2023-04-26T22:29:08.884Z,7.17
2023-04-26T22:33:12.382Z,7.15
2023-04-26T22:37:21.401Z,7.05
2023-04-26T22:41:24.850Z,6.93
2023-04-26T22:45:27.933Z,6.78
2023-04-26T22:49:30.963Z,6.72
2023-04-26T22:53:35.299Z,6.67
2023-04-26T22:57:38.420Z,6.44
2023-04-26T23:01:41.693Z,6.26
2023-04-26T23:05:45.598Z,6.20
2023-04-26T23:09:49.998Z,5.90
2023-04-26T23:13:54.460Z,5.80
2023-04-26T23:17:57.431Z,5.67
2023-04-26T23:22:00.323Z,5.55
2023-04-26T23:26:08.457Z,5.33
2023-04-26T23:30:13.872Z,5.21
2023-04-26T23:34:16.723Z,5.04
2023-04-26T23:38:19.726Z,4.93
2023-04-26T23:42:24.053Z,4.87
2023-04-26T23:46:27.041Z,4.79
2023-04-26T23:50:29.967Z,4.72
2023-04-26T23:54:32.891Z,4.75
2023-04-26T23:58:37.224Z,4.72
